Thursday, November 23, 2017, 6:32 PM GMT
Back to Local

CYZX, Greenwood, N. S.

Location: , , Canada Lat: 44.983
Local Time: 6:32 PM GMT (18:32 GMT) Lon: -64.917
Time Zone: GMT Elev: 91 ft

Show me the last for .
Show Decoded

2017-11-23 18:00 METAR CYZX 231800Z 28014G20KT 15SM SCT025 03/M03 A2982 RMK SC3 WNDY HILL UNAVBL
                 SLP101 =
2017-11-23 17:00 METAR CYZX 231700Z 27017G24KT 15SM BKN025 03/M02 A2981 RMK SC6 WNDY HILL UNAVBL
                 SLP097 =
2017-11-23 16:00 METAR CYZX 231600Z 28020G25KT 15SM SCT021 02/M03 A2982 RMK SC4 WNDY HILL UNAVBL
                 SLP098 =
2017-11-23 15:00 METAR CYZX 231500Z 27020G30KT 15SM SCT028 02/M03 A2982 RMK SC4 WNDY HILL UNAVBL
                 SLP099 =
2017-11-23 14:00 METAR CYZX 231400Z 31020G30KT 15SM SCT024 03/M03 A2978 RMK SC4 WNDY HILL UNAVBL
                 SLP084 =
2017-11-23 13:00 METAR CYZX 231300Z 29010G22KT 15SM BKN020 03/M01 A2974 RMK SC7 WNDY HILL UNAVBL
                 SLP073 =
2017-11-23 12:30 METAR CYZX 231230Z 28017KT 15SM BKN019 03/M00 A2973 RMK SC7 WNDY HILL UNAVBL
                 SLP068 =
2017-11-23 12:00 METAR CYZX 231200Z 27017G24KT 15SM BKN014 OVC025 03/00 A2970 RMK SC6SC2 WNDY
                 HILL UNAVBL SLP059 =
2017-11-23 11:00 METAR CYZX 231100Z 28016G25KT 15SM OVC014 03/02 A2965 RMK SC8 WNDY HILL UNAVBL
                 SLP042 =
2017-11-23 10:10 METAR CYZX 231010Z 28020G26KT 8SM OVC014 04/02 A2960 RMK SF8 WNDY HILL UNAVBL
                 SLP026 =
2017-11-23 10:00 METAR CYZX 231000Z 28020G29KT 3SM -RA BR OVC012 04/02 A2960 RMK SF8 WNDY HILL
                 UNAVBL PCPN VRY LGT SLP023 =
2017-11-23 09:00 METAR CYZX 230900Z 29019G31KT 3SM -RA BR OVC011 03/02 A2954 RMK SF8 PRESRR WNDY
                 HILL UNAVBL SLP004 =
2017-11-23 08:00 METAR CYZX 230800Z 31018G30KT 3SM -RA BR BKN011 OVC020 05/04 A2944 RMK SF5SC3
                 WNDY HILL UNAVBL SLP969 =
2017-11-23 07:00 METAR CYZX 230700Z 33018G29KT 3SM -RA BR FEW006 BKN011 OVC018 06/05 A2938 RMK
                 SF1SF5SC2 WNDY HILL UNAVBL SLP950 =
2017-11-23 06:27 METAR CYZX 230627Z 32022G34KT 3SM -RA BR FEW006 OVC011 06/05 A2937 RMK SF2SF6
                 PRESRR WNDY HILL UNAVBL SLP946 =
2017-11-23 06:00 METAR CYZX 230600Z 31019G31KT 2 1/2SM -RA BR SCT006 OVC011 06/05 A2934 RMK
                 SF3SF5 WNDY HILL UNAVBL SLP936 =
2017-11-23 05:30 METAR CYZX 230530Z 32019G33KT 2 1/2SM -RA BR FEW006 BKN011 OVC022 07/06 A2931
                 RMK SF2SF4SC2 WNDY HILL UNAVBL SLP926 =
2017-11-23 05:13 METAR CYZX 230513Z 31023G30KT 2SM RA BR FEW006 OVC011 12/12 A2929 RMK SF2SF6
                 WNDY HILL UNAVBL SLP919 =
2017-11-23 05:00 METAR CYZX 230500Z 28002KT 3SM -RA BR BKN011 OVC030 13/12 A2930 RMK SF6SC2
                 PRESFR WNDY HILL UNAVBL SLP923 =
2017-11-23 04:32 METAR CYZX 230432Z 00000KT 3SM -RA BR BKN011 OVC030 13/12 A2933 RMK SF5SC3
                 PRESFR WNDY HILL UNAVBL SLP933 =
2017-11-23 04:00 METAR CYZX 230400Z 05008KT 2 1/2SM RA BR SCT011 OVC030 13/12 A2939 RMK SF4SC4
                 PRESFR /R25/ WNDY HILL UNAVBL SLP953 =
2017-11-23 03:31 METAR CYZX 230331Z 34004KT 2SM RA BR SCT012 BKN030 OVC050 13/12 A2943 RMK
                 SC3SC3SC2 PRESFR WNDY HILL UNAVBL SLP968 =
2017-11-23 03:00 METAR CYZX 230300Z 12004KT 2SM RA BR FEW018 BKN030 OVC050 13/13 A2950 RMK
                 SC2SC4SC2 PRESFR /R14/ WNDY HILL UNAVBL SLP992 =
2017-11-23 02:21 METAR CYZX 230221Z 13006KT 2SM RA BR BKN027 OVC050 13/13 A2955 RMK SC5SC3 PRESFR
                 WNDY HILL UNAVBL SLP008 =
2017-11-23 02:00 METAR CYZX 230200Z 06005KT 3SM -RA BR BKN030 OVC050 13/12 A2957 RMK SC5SC3
                 PRESFR WNDY HILL UNAVBL SLP013 =
2017-11-23 01:43 METAR CYZX 230143Z 09004KT 3SM -RA BR BKN030 OVC050 13/12 A2959 RMK SC5SC3
                 PRESFR WNDY HILL UNAVBL SLP020 =
2017-11-23 01:14 METAR CYZX 230114Z 14006KT 3SM RA BR SCT030 OVC080 13/12 A2963 RMK SC3AC5 PRESFR
                 WNDY HILL UNAVBL SLP036 =
2017-11-23 01:00 METAR CYZX 230100Z 17005KT 5SM -SHRA BR FEW025 OVC085 13/12 A2965 RMK SC2AC6
                 PRESFR WNDY HILL UNAVBL SLP041 =
2017-11-23 00:00 METAR CYZX 230000Z 17009KT 5SM -SHRA BR FEW025 OVC085 13/12 A2971 RMK SC2AC6
                 WNDY HILL UNAVBL SLP062 =
2017-11-22 23:17 METAR CYZX 222317Z 17009KT 8SM -SHRA FEW025 OVC080 14/12 A2974 RMK SC2AC6 WNDY
                 HILL UNAVBL SLP072 =
2017-11-22 23:00 METAR CYZX 222300Z 14011G17KT 15SM OVC110 14/12 A2975 RMK AC8 WNDY HILL UNAVBL
                 SLP074 =
2017-11-22 22:00 METAR CYZX 222200Z 15010G15KT 15SM OVC140 14/12 A2979 RMK AC8 WNDY HILL UNAVBL
                 SLP090 =
2017-11-22 21:00 METAR CYZX 222100Z 16008KT 15SM FEW060 OVC140 13/12 A2985 RMK SC2AC6 WNDY HILL
                 UNAVBL SLP108 =
2017-11-22 20:00 METAR CYZX 222000Z 07003KT 15SM SCT060 OVC130 13/11 A2990 RMK SC3AC5 WNDY HILL
                 UNAVBL SLP125 =
2017-11-22 19:29 METAR CYZX 221929Z 13003KT 15SM SCT035 OVC075 13/11 A2991 RMK SC4AC4 WNDY HILL
                 UNAVBL SLP128 =
2017-11-22 19:00 METAR CYZX 221900Z 17003KT 12SM -SHRA SCT040 OVC075 14/11 A2992 RMK SC3AC5 WNDY
                 HILL UNAVBL SLP133 =
2017-11-22 18:47 METAR CYZX 221847Z 17005KT 10SM -SHRA SCT040 OVC075 14/11 A2993 RMK SC3AC5 WNDY
                 HILL UNAVBL SLP137 =

Support USWX by starting your Amazon purchase here.